Terminal Aerodrome Forecast
Issued by NWS Binghamton, NY

Home | Current Version | Previous Version | Text Only | Print | Product List | Glossary On
Versions: 1 2 3 4 5 6 7 8 9 10 11 12 13 14 15 16 17 18 19
843
FTUS41 KBGM 011236 AAB
TAFBGM
TAF AMD
KBGM 011236Z 0113/0212 15013G27KT 4SM -RA BR SCT002 OVC006
      TEMPO 0113/0116 2SM RA BR OVC008
     FM011700 16012G22KT P6SM -SHRA OVC008
     FM020000 15008KT P6SM OVC006
     FM020900 VRB05KT 3SM -RA BR OVC004=

USA.gov is the U.S. government's official web portal to all federal, state and local government web resources and services.